Time;durP1;ratioP1;P1;durP2;ratioP2;P2;SDS_P1;SDS_P2;PMS_P1;PMS_P2;Temp;Humidity;BMP_temperature;BMP_pressure;BME280_temperature;BME280_humidity;BME280_pressure;Samples;Min_cycle;Max_cycle;Signal;HPM_P1;HPM_P2
2021/04/24 00:02:19;;;;;;;10.87;5.00;;;9.30;82.80;;;;;;5075894;28;20443;-80
2021/04/24 00:04:45;;;;;;;8.63;3.97;;;9.20;83.10;;;;;;5075656;28;20499;-80
2021/04/24 00:07:12;;;;;;;8.63;4.67;;;9.30;83.40;;;;;;5077377;28;20515;-80
2021/04/24 00:09:40;;;;;;;7.03;4.23;;;9.30;83.00;;;;;;5083272;28;20992;-80
2021/04/24 00:12:07;;;;;;;8.30;4.40;;;9.30;83.10;;;;;;5084199;28;20969;-79
2021/04/24 00:14:34;;;;;;;10.00;5.10;;;9.20;82.90;;;;;;5093945;28;20418;-80
2021/04/24 00:17:00;;;;;;;9.87;4.40;;;9.20;83.40;;;;;;5099916;28;20501;-79
2021/04/24 00:19:27;;;;;;;8.10;4.17;;;9.20;83.60;;;;;;5099004;28;20459;-79
2021/04/24 00:21:53;;;;;;;9.93;4.03;;;9.10;84.00;;;;;;5115321;28;20465;-81
2021/04/24 00:24:20;;;;;;;11.17;4.50;;;9.10;85.20;;;;;;5122900;28;20529;-81
2021/04/24 00:26:47;;;;;;;7.30;3.93;;;9.10;84.60;;;;;;5123493;28;20506;-81
2021/04/24 00:29:13;;;;;;;8.03;5.20;;;8.80;84.40;;;;;;5121734;28;20557;-81
2021/04/24 00:31:39;;;;;;;9.43;4.77;;;9.00;85.00;;;;;;5101066;28;20494;-81
2021/04/24 00:34:06;;;;;;;7.10;4.43;;;8.90;85.20;;;;;;5084255;28;20467;-81
2021/04/24 00:36:32;;;;;;;9.40;4.80;;;8.80;85.50;;;;;;5079292;28;20443;-81
2021/04/24 00:38:59;;;;;;;11.43;3.93;;;8.80;85.20;;;;;;5078569;28;20559;-81
2021/04/24 00:41:25;;;;;;;7.37;4.63;;;8.80;86.50;;;;;;5079321;28;20452;-81
2021/04/24 00:43:52;;;;;;;8.10;4.57;;;8.80;85.90;;;;;;5078747;28;20479;-81
2021/04/24 00:46:19;;;;;;;9.70;4.53;;;8.80;86.10;;;;;;5081074;28;20454;-81
2021/04/24 00:48:47;;;;;;;8.73;4.20;;;8.40;86.30;;;;;;5096628;28;20571;-81
2021/04/24 00:51:13;;;;;;;7.97;4.10;;;8.70;87.40;;;;;;5096746;28;20455;-82
2021/04/24 00:53:40;;;;;;;6.93;4.27;;;8.60;87.40;;;;;;5097537;28;21137;-81
2021/04/24 00:56:07;;;;;;;10.17;3.93;;;8.70;87.90;;;;;;5098052;28;20458;-81
2021/04/24 00:58:34;;;;;;;7.43;3.67;;;8.60;88.10;;;;;;5096371;28;21027;-81
2021/04/24 01:01:02;;;;;;;6.80;4.27;;;8.20;88.20;;;;;;5096986;28;20517;-81
2021/04/24 01:03:29;;;;;;;8.05;3.88;;;8.50;88.80;;;;;;5095508;28;20539;-82
2021/04/24 01:05:55;;;;;;;8.83;5.20;;;8.50;89.20;;;;;;5096869;28;20254;-82
2021/04/24 01:08:22;;;;;;;10.50;4.30;;;8.60;89.40;;;;;;5097151;28;20576;-80
2021/04/24 01:10:48;;;;;;;10.37;4.40;;;8.30;89.20;;;;;;5097106;28;20471;-81
2021/04/24 01:13:16;;;;;;;7.50;3.92;;;8.20;89.40;;;;;;5093557;28;20448;-81
2021/04/24 01:15:43;;;;;;;8.60;4.47;;;8.30;90.00;;;;;;5077557;28;20392;-81
2021/04/24 01:18:11;;;;;;;6.40;4.23;;;8.30;90.20;;;;;;5083785;28;20475;-80
2021/04/24 01:20:39;;;;;;;9.60;4.00;;;8.10;90.20;;;;;;5098230;28;20534;-80
2021/04/24 01:23:08;;;;;;;8.17;4.67;;;8.40;90.60;;;;;;5099653;28;20474;-80
2021/04/24 01:25:37;;;;;;;9.80;4.20;;;8.10;90.40;;;;;;5102016;28;20780;-80
2021/04/24 01:28:04;;;;;;;6.90;4.27;;;8.00;90.90;;;;;;5096752;28;20474;-81
2021/04/24 01:30:34;;;;;;;10.70;4.20;;;8.10;90.90;;;;;;5095787;28;20532;-82
2021/04/24 01:33:01;;;;;;;9.05;4.57;;;7.90;91.10;;;;;;5096140;28;20479;-81
2021/04/24 01:35:31;;;;;;;8.40;4.10;;;7.90;91.30;;;;;;5093272;28;20265;-81
2021/04/24 01:37:59;;;;;;;9.20;4.40;;;7.80;91.40;;;;;;5075701;28;20313;-81
2021/04/24 01:40:26;;;;;;;9.10;4.73;;;7.80;91.50;;;;;;5078089;28;20278;-81
2021/04/24 01:42:53;;;;;;;10.77;5.00;;;7.60;91.60;;;;;;5077696;28;20487;-81
2021/04/24 01:45:21;;;;;;;8.17;4.80;;;8.10;92.00;;;;;;5077728;28;20513;-81
2021/04/24 01:47:48;;;;;;;7.67;3.83;;;7.70;91.30;;;;;;5076953;28;20480;-81
2021/04/24 01:50:17;;;;;;;7.13;3.90;;;7.90;91.40;;;;;;5095390;28;20447;-81
2021/04/24 01:52:45;;;;;;;7.60;4.40;;;7.90;91.50;;;;;;5093195;28;20197;-81
2021/04/24 01:55:14;;;;;;;11.17;3.70;;;7.70;91.50;;;;;;5092838;28;20483;-81
2021/04/24 01:57:43;;;;;;;8.90;4.40;;;7.90;91.70;;;;;;5094439;28;20495;-81
2021/04/24 02:00:13;;;;;;;7.60;4.60;;;8.00;91.70;;;;;;5094918;28;20449;-81
2021/04/24 02:02:40;;;;;;;8.73;4.37;;;7.70;91.60;;;;;;5097459;28;20554;-81
2021/04/24 02:05:09;;;;;;;6.60;4.10;;;7.70;91.60;;;;;;5092840;28;20458;-82
2021/04/24 02:07:35;;;;;;;10.70;4.78;;;7.90;91.70;;;;;;5082509;28;21201;-81
2021/04/24 02:10:02;;;;;;;8.17;4.47;;;7.90;92.10;;;;;;5085128;28;20285;-81
2021/04/24 02:12:28;;;;;;;7.10;4.00;;;7.70;91.70;;;;;;5074040;28;20534;-81
2021/04/24 02:14:56;;;;;;;8.27;4.15;;;7.70;91.90;;;;;;5088786;28;20526;-81
2021/04/24 02:17:25;;;;;;;12.10;4.53;;;7.60;92.10;;;;;;5094252;28;20204;-81
2021/04/24 02:19:52;;;;;;;9.80;4.10;;;7.40;92.40;;;;;;5093763;28;20223;-81
2021/04/24 02:22:20;;;;;;;10.23;5.93;;;7.40;92.80;;;;;;5094357;28;20929;-80
2021/04/24 02:24:49;;;;;;;9.90;4.20;;;7.30;92.90;;;;;;5094560;28;20500;-81
2021/04/24 02:27:16;;;;;;;11.63;4.77;;;7.30;93.00;;;;;;5095350;28;20724;-81
2021/04/24 02:29:43;;;;;;;7.10;3.80;;;7.30;93.10;;;;;;5096995;28;20475;-81
2021/04/24 02:32:13;;;;;;;11.45;5.07;;;7.40;93.40;;;;;;5094830;28;20439;-80
2021/04/24 02:34:40;;;;;;;10.68;4.60;;;7.40;93.40;;;;;;5095283;28;20232;-80
2021/04/24 02:37:07;;;;;;;12.88;5.22;;;7.30;93.40;;;;;;5084770;28;20198;-81
2021/04/24 02:39:37;;;;;;;10.20;5.23;;;7.20;93.40;;;;;;5081487;28;20422;-80
2021/04/24 02:42:05;;;;;;;9.50;4.60;;;7.00;93.60;;;;;;5097015;28;20454;-80
2021/04/24 02:44:32;;;;;;;10.23;4.77;;;7.20;93.90;;;;;;5100276;28;20566;-81
2021/04/24 02:46:59;;;;;;;9.85;4.68;;;7.20;94.00;;;;;;5102279;28;20439;-81
2021/04/24 02:49:27;;;;;;;6.70;3.93;;;7.20;94.00;;;;;;5101762;28;20331;-81
2021/04/24 02:51:54;;;;;;;9.23;4.90;;;7.10;94.10;;;;;;5082523;28;20459;-81
2021/04/24 02:54:21;;;;;;;9.18;4.57;;;7.00;94.10;;;;;;5075177;28;20504;-81
2021/04/24 02:56:47;;;;;;;11.00;4.82;;;7.00;94.00;;;;;;5073613;28;20244;-81
2021/04/24 02:59:14;;;;;;;8.53;4.80;;;7.10;94.10;;;;;;5076772;28;20288;-81
2021/04/24 03:01:41;;;;;;;8.52;5.50;;;7.20;94.30;;;;;;5078456;28;20509;-81
2021/04/24 03:04:07;;;;;;;9.98;5.00;;;7.00;94.30;;;;;;5079260;28;20384;-81
2021/04/24 03:06:34;;;;;;;10.30;4.70;;;6.90;94.50;;;;;;5097955;28;20292;-81
2021/04/24 03:09:01;;;;;;;9.63;4.88;;;6.80;94.70;;;;;;5097077;28;20703;-81
2021/04/24 03:11:28;;;;;;;9.90;4.93;;;6.90;95.00;;;;;;5097254;28;20553;-81
2021/04/24 03:13:55;;;;;;;10.45;5.25;;;6.90;95.00;;;;;;5089444;28;20198;-81
2021/04/24 03:16:22;;;;;;;11.65;4.30;;;6.90;95.00;;;;;;5077120;28;20607;-81
2021/04/24 03:18:48;;;;;;;8.88;4.50;;;6.90;95.00;;;;;;5086711;28;20220;-81
2021/04/24 03:21:15;;;;;;;8.43;5.00;;;6.80;95.00;;;;;;5098642;28;20311;-81
2021/04/24 03:23:42;;;;;;;11.48;5.28;;;6.70;95.30;;;;;;5097797;28;20249;-81
2021/04/24 03:26:08;;;;;;;9.45;4.55;;;6.90;95.60;;;;;;5098825;28;20233;-80
2021/04/24 03:28:34;;;;;;;7.07;4.00;;;6.80;95.70;;;;;;5101939;28;20293;-80
2021/04/24 03:31:01;;;;;;;6.63;4.05;;;6.60;95.80;;;;;;5104257;28;20710;-80
2021/04/24 03:33:27;;;;;;;8.80;4.35;;;6.70;96.10;;;;;;5103861;28;20276;-80
2021/04/24 03:35:53;;;;;;;12.48;5.03;;;6.70;96.10;;;;;;5098675;28;20665;-81
2021/04/24 03:38:20;;;;;;;7.40;4.63;;;6.70;96.20;;;;;;5097391;28;20340;-80
2021/04/24 03:40:47;;;;;;;11.67;5.93;;;6.60;96.30;;;;;;5098571;28;20497;-80
2021/04/24 03:43:13;;;;;;;12.20;5.10;;;6.60;96.40;;;;;;5100007;28;20956;-80
2021/04/24 03:45:40;;;;;;;11.20;5.50;;;6.80;96.70;;;;;;5101881;28;20533;-80
2021/04/24 03:48:07;;;;;;;11.27;4.77;;;6.40;96.40;;;;;;5084516;28;20854;-80
2021/04/24 03:50:33;;;;;;;7.70;4.45;;;6.40;96.70;;;;;;5102606;28;20453;-80
2021/04/24 03:53:00;;;;;;;9.85;5.05;;;6.50;97.10;;;;;;5103945;28;20213;-80
2021/04/24 03:55:26;;;;;;;10.27;5.40;;;6.40;97.40;;;;;;5098844;28;20300;-81
2021/04/24 03:57:54;;;;;;;6.90;4.90;;;6.50;97.60;;;;;;5098951;28;20408;-79
2021/04/24 04:00:23;;;;;;;10.85;5.72;;;6.30;97.80;;;;;;5092343;28;20474;-79
2021/04/24 04:02:52;;;;;;;9.75;5.10;;;6.20;97.80;;;;;;5077452;28;20217;-79
2021/04/24 04:05:20;;;;;;;10.32;5.05;;;6.30;97.90;;;;;;5077065;28;20299;-80
2021/04/24 04:07:46;;;;;;;8.50;4.80;;;6.20;98.10;;;;;;5075656;28;20225;-79
2021/04/24 04:10:15;;;;;;;11.98;4.80;;;6.20;98.10;;;;;;5076287;28;20238;-83
2021/04/24 04:12:41;;;;;;;7.35;4.72;;;6.30;98.20;;;;;;5076585;28;20209;-81
2021/04/24 04:15:11;;;;;;;8.80;4.85;;;6.20;98.10;;;;;;5094131;28;20248;-81
2021/04/24 04:17:38;;;;;;;10.30;4.05;;;6.40;98.30;;;;;;5096616;28;20273;-80
2021/04/24 04:20:06;;;;;;;11.93;5.30;;;6.30;98.10;;;;;;5089510;28;20205;-80
2021/04/24 04:22:32;;;;;;;9.15;5.75;;;6.50;98.00;;;;;;5096776;28;20233;-81
2021/04/24 04:24:59;;;;;;;9.77;5.05;;;6.40;98.00;;;;;;5096740;28;20316;-80
2021/04/24 04:27:25;;;;;;;8.77;4.45;;;6.30;98.00;;;;;;5096207;28;20292;-80
2021/04/24 04:29:52;;;;;;;9.95;5.35;;;6.20;98.10;;;;;;5097562;28;20273;-80
2021/04/24 04:32:19;;;;;;;9.07;5.05;;;6.40;98.40;;;;;;5098371;28;20351;-81
2021/04/24 04:34:46;;;;;;;8.65;4.95;;;6.30;98.20;;;;;;5097888;28;20201;-80
2021/04/24 04:37:13;;;;;;;11.73;5.47;;;6.20;98.40;;;;;;5096249;28;20292;-80
2021/04/24 04:39:40;;;;;;;12.52;5.13;;;6.30;98.50;;;;;;5096580;28;20278;-80
2021/04/24 04:42:07;;;;;;;10.68;5.75;;;6.20;98.70;;;;;;5088476;28;20233;-80
2021/04/24 04:44:34;;;;;;;10.35;5.45;;;6.10;98.70;;;;;;5075972;28;20805;-80
2021/04/24 04:47:01;;;;;;;13.52;6.03;;;6.00;99.00;;;;;;5077605;28;20236;-80
2021/04/24 04:49:28;;;;;;;11.52;5.05;;;6.20;99.30;;;;;;5111903;22;20232;-86
2021/04/24 04:51:54;;;;;;;8.75;5.35;;;6.20;99.60;;;;;;5099048;28;20237;-86
2021/04/24 04:54:21;;;;;;;14.90;5.88;;;6.10;99.50;;;;;;5100823;28;20212;-86
2021/04/24 04:56:47;;;;;;;8.93;5.25;;;6.10;99.50;;;;;;5098027;28;20201;-84
2021/04/24 04:59:13;;;;;;;7.60;4.60;;;6.10;99.50;;;;;;5084841;28;20261;-88
2021/04/24 05:01:40;;;;;;;15.02;6.20;;;6.30;99.80;;;;;;5076905;28;20491;-85
2021/04/24 05:04:06;;;;;;;7.88;4.93;;;6.10;99.50;;;;;;5076652;28;20572;-86
2021/04/24 05:06:34;;;;;;;10.52;5.47;;;6.00;99.90;;;;;;5077772;28;20217;-84
2021/04/24 05:09:00;;;;;;;8.93;4.70;;;6.20;99.90;;;;;;5078816;28;20288;-89
2021/04/24 05:11:26;;;;;;;11.32;5.88;;;6.10;99.90;;;;;;5082189;28;20275;-89
2021/04/24 05:13:53;;;;;;;15.20;5.00;;;6.30;99.80;;;;;;5081452;28;20280;-88
2021/04/24 05:16:19;;;;;;;11.15;5.40;;;6.40;99.50;;;;;;5084223;28;20248;-86
2021/04/24 05:18:45;;;;;;;11.20;5.90;;;6.40;99.20;;;;;;5088554;28;20225;-85
2021/04/24 05:21:12;;;;;;;10.93;5.93;;;6.60;99.20;;;;;;5095840;28;20246;-86
2021/04/24 05:23:39;;;;;;;9.77;5.25;;;6.70;99.20;;;;;;5088963;28;20249;-85
2021/04/24 05:26:06;;;;;;;11.60;6.05;;;6.60;99.00;;;;;;5056487;28;20232;-86
2021/04/24 05:28:32;;;;;;;10.85;5.97;;;6.60;98.80;;;;;;5057456;28;20324;-86
2021/04/24 05:30:58;;;;;;;9.93;5.55;;;6.60;98.80;;;;;;5059979;28;20245;-84
2021/04/24 05:33:25;;;;;;;12.05;5.35;;;6.80;99.10;;;;;;5057742;28;20228;-85
2021/04/24 05:35:52;;;;;;;12.65;5.65;;;6.70;99.00;;;;;;5055862;28;20206;-86
2021/04/24 05:38:19;;;;;;;9.88;5.65;;;6.70;99.00;;;;;;5071258;28;20287;-85
2021/04/24 05:40:46;;;;;;;13.93;5.90;;;6.80;99.10;;;;;;5078789;28;20711;-86
2021/04/24 05:43:13;;;;;;;11.60;5.75;;;6.80;99.20;;;;;;5076295;28;20286;-86
2021/04/24 05:45:39;;;;;;;10.48;5.85;;;6.90;99.30;;;;;;5078135;28;20301;-87
2021/04/24 05:48:06;;;;;;;14.63;5.80;;;6.70;99.30;;;;;;5078442;28;20371;-85
2021/04/24 05:50:32;;;;;;;10.88;5.88;;;7.00;99.30;;;;;;5076133;28;20249;-87
2021/04/24 05:52:59;;;;;;;9.40;5.38;;;7.10;98.90;;;;;;5077221;28;20667;-85
2021/04/24 05:55:25;;;;;;;9.68;6.10;;;7.20;98.60;;;;;;5076074;28;20656;-84
2021/04/24 05:57:53;;;;;;;10.00;5.88;;;7.50;98.70;;;;;;5078780;28;20202;-86
2021/04/24 06:00:21;;;;;;;12.95;7.07;;;7.20;98.30;;;;;;5080522;28;20358;-85
2021/04/24 06:02:48;;;;;;;9.47;6.17;;;7.60;98.50;;;;;;5079651;28;20233;-86
2021/04/24 06:05:15;;;;;;;12.80;6.28;;;7.60;98.00;;;;;;5079933;28;20820;-86
2021/04/24 06:07:42;;;;;;;12.63;6.18;;;7.70;97.80;;;;;;5079517;28;20636;-85
2021/04/24 06:10:11;;;;;;;10.20;6.25;;;7.80;97.60;;;;;;5081679;28;20222;-85
2021/04/24 06:12:39;;;;;;;12.57;5.90;;;8.10;97.40;;;;;;5080030;28;20206;-86
2021/04/24 06:15:09;;;;;;;14.10;6.77;;;7.90;97.30;;;;;;5082258;28;20197;-85
2021/04/24 06:17:35;;;;;;;12.88;6.72;;;7.90;97.70;;;;;;5080619;28;20476;-86
2021/04/24 06:20:02;;;;;;;14.03;6.57;;;8.10;97.80;;;;;;5080255;28;20784;-87
2021/04/24 06:22:28;;;;;;;17.20;6.82;;;8.20;97.30;;;;;;5080566;28;20582;-86
2021/04/24 06:24:55;;;;;;;15.00;8.40;;;8.60;97.10;;;;;;5080470;28;20289;-87
2021/04/24 06:27:21;;;;;;;15.43;7.20;;;8.40;96.80;;;;;;5081083;28;20444;-86
2021/04/24 06:29:47;;;;;;;14.80;8.33;;;8.60;96.60;;;;;;5080823;28;20506;-86
2021/04/24 06:32:15;;;;;;;11.10;6.73;;;8.70;96.30;;;;;;5081057;28;20456;-86
2021/04/24 06:34:41;;;;;;;14.07;7.90;;;8.80;95.50;;;;;;5082950;28;20432;-86
2021/04/24 06:37:08;;;;;;;12.67;7.87;;;9.00;94.90;;;;;;5083070;28;20475;-85
2021/04/24 06:39:34;;;;;;;12.00;7.03;;;9.00;94.90;;;;;;5085655;28;21008;-86
2021/04/24 06:42:01;;;;;;;12.67;7.13;;;9.10;95.00;;;;;;5087271;28;20458;-86
2021/04/24 06:44:28;;;;;;;11.20;7.07;;;9.20;94.70;;;;;;5090432;28;20491;-86
2021/04/24 06:46:54;;;;;;;19.00;8.50;;;9.40;94.60;;;;;;5093868;28;20883;-85
2021/04/24 06:49:22;;;;;;;11.27;7.57;;;9.50;93.80;;;;;;5089346;28;20471;-87
2021/04/24 06:51:49;;;;;;;12.27;8.13;;;9.40;93.70;;;;;;5085405;28;20415;-86
2021/04/24 06:54:15;;;;;;;19.90;8.60;;;9.50;93.50;;;;;;5085632;28;20455;-88
2021/04/24 06:56:42;;;;;;;12.67;7.90;;;9.60;93.50;;;;;;5089254;28;20475;-86
2021/04/24 06:59:08;;;;;;;11.73;6.97;;;9.70;93.20;;;;;;5089350;28;20496;-85
2021/04/24 07:01:35;;;;;;;20.27;7.80;;;9.90;93.00;;;;;;5073381;28;21057;-84
2021/04/24 07:04:01;;;;;;;17.20;9.37;;;10.00;92.40;;;;;;5058952;28;20477;-87
2021/04/24 07:06:29;;;;;;;12.83;7.60;;;10.10;91.90;;;;;;5064320;28;20602;-86
2021/04/24 07:08:55;;;;;;;16.83;8.67;;;10.20;91.70;;;;;;5058455;28;20500;-85
2021/04/24 07:11:21;;;;;;;20.20;9.33;;;10.30;91.20;;;;;;5055971;28;20479;-88
2021/04/24 07:13:48;;;;;;;15.03;8.90;;;10.30;91.20;;;;;;5055189;28;20505;-87
2021/04/24 07:16:14;;;;;;;13.43;8.63;;;10.40;90.80;;;;;;5071278;28;21007;-85
2021/04/24 07:18:41;;;;;;;18.97;10.10;;;10.50;90.70;;;;;;5074594;28;20472;-84
2021/04/24 07:21:08;;;;;;;14.07;8.67;;;10.60;90.60;;;;;;5074010;28;20446;-87
2021/04/24 07:23:36;;;;;;;16.60;9.30;;;10.80;90.30;;;;;;5075787;28;20434;-88
2021/04/24 07:26:03;;;;;;;16.70;9.23;;;10.90;90.20;;;;;;5076244;28;20462;-86
2021/04/24 07:28:29;;;;;;;14.03;8.23;;;11.20;90.30;;;;;;5074899;28;20530;-85
2021/04/24 07:30:56;;;;;;;18.33;10.17;;;11.30;89.90;;;;;;5074973;28;20411;-84
2021/04/24 07:33:23;;;;;;;13.03;9.53;;;11.30;90.00;;;;;;5081521;28;20451;-85
2021/04/24 07:35:50;;;;;;;17.90;9.50;;;11.40;89.90;;;;;;5077627;28;20478;-86
2021/04/24 07:38:17;;;;;;;12.93;9.17;;;11.50;90.10;;;;;;5078171;28;20491;-85
2021/04/24 07:40:44;;;;;;;12.47;8.50;;;11.60;89.60;;;;;;5076971;28;20953;-86
2021/04/24 07:43:11;;;;;;;13.53;9.93;;;11.50;89.10;;;;;;5066213;28;20431;-87
2021/04/24 07:45:37;;;;;;;14.00;8.43;;;11.60;89.50;;;;;;5056536;28;20496;-87
2021/04/24 07:48:05;;;;;;;15.93;9.43;;;11.80;88.80;;;;;;5056426;28;20529;-85
2021/04/24 07:50:33;;;;;;;15.40;9.77;;;11.90;88.70;;;;;;5071694;28;20479;-86
2021/04/24 07:52:59;;;;;;;13.97;8.53;;;12.00;88.00;;;;;;5081868;28;20426;-87
2021/04/24 07:55:26;;;;;;;14.03;9.00;;;12.10;87.50;;;;;;5085588;28;20845;-86
2021/04/24 07:57:53;;;;;;;15.13;9.23;;;12.30;86.70;;;;;;5087398;28;20406;-84
2021/04/24 08:00:21;;;;;;;15.60;9.67;;;12.40;85.20;;;;;;5070149;28;20431;-87
2021/04/24 08:02:47;;;;;;;18.30;10.03;;;12.50;85.10;;;;;;5067366;28;20462;-87
2021/04/24 08:05:16;;;;;;;13.57;9.30;;;12.50;84.70;;;;;;5066764;28;21169;-87
2021/04/24 08:07:43;;;;;;;18.27;9.90;;;12.50;84.50;;;;;;5066614;28;20481;-87
2021/04/24 08:10:10;;;;;;;20.70;9.20;;;12.60;84.70;;;;;;5065003;28;20423;-86
2021/04/24 08:12:37;;;;;;;14.10;9.80;;;12.80;84.40;;;;;;5063828;28;20485;-86
2021/04/24 08:15:05;;;;;;;16.70;8.80;;;12.90;83.70;;;;;;5064057;28;21004;-86
2021/04/24 08:17:32;;;;;;;15.67;9.03;;;13.00;83.10;;;;;;5064242;28;20480;-86
2021/04/24 08:19:59;;;;;;;13.93;8.30;;;13.10;82.30;;;;;;5064657;28;20503;-86
2021/04/24 08:22:26;;;;;;;12.93;7.13;;;13.10;82.10;;;;;;5064287;28;20427;-86
2021/04/24 08:24:53;;;;;;;15.27;8.70;;;13.10;81.30;;;;;;5064259;28;20459;-85
2021/04/24 08:27:19;;;;;;;14.57;9.00;;;13.30;80.90;;;;;;5071406;28;20464;-86
2021/04/24 08:29:46;;;;;;;12.60;7.67;;;13.30;79.80;;;;;;5066542;28;21063;-86
2021/04/24 08:32:13;;;;;;;12.30;8.73;;;13.50;79.10;;;;;;5065620;28;20458;-87
2021/04/24 08:34:39;;;;;;;14.40;8.93;;;13.60;78.50;;;;;;5064761;28;20484;-87
2021/04/24 08:37:08;;;;;;;13.03;8.90;;;13.70;77.80;;;;;;5064428;28;20497;-86
2021/04/24 08:39:34;;;;;;;15.40;7.90;;;13.70;77.20;;;;;;5064267;28;20481;-86
2021/04/24 08:42:03;;;;;;;11.63;8.47;;;13.90;75.10;;;;;;5064234;28;20535;-87
2021/04/24 08:44:30;;;;;;;14.10;7.60;;;14.00;74.90;;;;;;5065296;28;20477;-85
2021/04/24 08:46:58;;;;;;;16.17;8.33;;;14.00;72.60;;;;;;5064950;28;20828;-87
2021/04/24 08:49:27;;;;;;;12.37;6.83;;;14.10;72.90;;;;;;5064423;28;20561;-86
2021/04/24 08:51:54;;;;;;;11.30;7.00;;;14.20;71.60;;;;;;5063463;28;20540;-85
2021/04/24 08:54:22;;;;;;;15.03;8.40;;;14.30;68.80;;;;;;5063652;28;20428;-87
2021/04/24 08:56:49;;;;;;;16.50;8.10;;;14.30;67.50;;;;;;5061196;28;20452;-87
2021/04/24 08:59:16;;;;;;;13.40;7.83;;;14.50;67.20;;;;;;5061513;28;20485;-88
2021/04/24 09:01:43;;;;;;;9.40;7.00;;;14.70;66.80;;;;;;5063348;28;20440;-87
2021/04/24 09:04:09;;;;;;;13.30;8.40;;;14.80;65.80;;;;;;5063801;28;20547;-86
2021/04/24 09:06:37;;;;;;;14.23;7.80;;;14.80;64.90;;;;;;5062126;28;20427;-87
2021/04/24 09:09:05;;;;;;;14.93;7.40;;;15.00;65.50;;;;;;5061648;28;20463;-87
2021/04/24 09:11:39;;;;;;;13.80;8.40;;;15.10;65.40;;;;;;5061750;28;20987;-85
2021/04/24 09:14:09;;;;;;;17.77;10.13;;;15.00;64.80;;;;;;5062593;28;20448;-85
2021/04/24 09:16:37;;;;;;;12.50;7.53;;;15.10;65.50;;;;;;5061182;28;20420;-86
2021/04/24 09:19:36;;;;;;;13.97;7.90;;;15.20;65.60;;;;;;5063079;28;20452;-86
2021/04/24 09:22:17;;;;;;;13.20;8.73;;;15.00;66.40;;;;;;5065557;28;20471;-85
2021/04/24 09:24:45;;;;;;;12.17;7.87;;;15.10;65.70;;;;;;5102969;28;20474;-85
2021/04/24 09:27:12;;;;;;;15.53;7.77;;;15.10;64.40;;;;;;5103453;28;20458;-85
2021/04/24 09:29:39;;;;;;;11.70;8.27;;;15.20;65.10;;;;;;5104860;28;20449;-87
2021/04/24 09:32:16;;;;;;;13.37;8.57;;;15.40;64.90;;;;;;5102720;28;20880;-88
2021/04/24 09:34:46;;;;;;;16.63;9.20;;;15.50;63.80;;;;;;5102667;28;20535;-85
2021/04/24 09:37:19;;;;;;;12.07;7.20;;;15.70;63.30;;;;;;5103373;28;20459;-88
2021/04/24 09:39:47;;;;;;;12.40;7.80;;;15.90;61.30;;;;;;5102497;28;20547;-87
2021/04/24 09:42:33;;;;;;;15.10;9.07;;;15.90;60.50;;;;;;5103033;28;20443;-87
2021/04/24 09:45:00;;;;;;;12.53;8.40;;;16.00;61.10;;;;;;5100952;28;20519;-86
2021/04/24 09:47:40;;;;;;;11.60;8.43;;;16.10;59.50;;;;;;5099642;28;20458;-86
2021/04/24 09:50:16;;;;;;;13.97;7.27;;;16.20;58.00;;;;;;5096690;28;20462;-85
2021/04/24 09:52:44;;;;;;;12.97;8.17;;;16.30;55.90;;;;;;5081590;28;20560;-88
2021/04/24 09:55:15;;;;;;;13.13;8.30;;;16.30;55.60;;;;;;5084243;28;20444;-87
2021/04/24 09:57:42;;;;;;;12.17;8.57;;;16.30;56.30;;;;;;5084540;28;20440;-84
2021/04/24 10:00:14;;;;;;;14.17;7.83;;;16.40;55.80;;;;;;5082271;28;20444;-85
2021/04/24 10:02:42;;;;;;;14.07;10.00;;;16.40;53.20;;;;;;5079577;28;20431;-87
2021/04/24 10:05:14;;;;;;;11.77;8.30;;;16.30;54.00;;;;;;5077764;28;20502;-85
2021/04/24 10:07:42;;;;;;;12.93;8.43;;;16.40;55.60;;;;;;5079947;28;20434;-85
2021/04/24 10:10:11;;;;;;;12.00;8.73;;;16.40;53.80;;;;;;5079563;28;20427;-86
2021/04/24 10:12:38;;;;;;;14.37;8.90;;;16.40;53.70;;;;;;5085423;28;20518;-87
2021/04/24 10:15:06;;;;;;;12.00;8.60;;;16.40;53.20;;;;;;5091902;28;20429;-86
2021/04/24 10:17:32;;;;;;;15.90;9.70;;;16.50;53.60;;;;;;5089841;28;20459;-88
2021/04/24 10:20:00;;;;;;;17.83;8.70;;;16.60;53.30;;;;;;5079784;28;20885;-86
2021/04/24 10:22:27;;;;;;;12.33;7.20;;;16.60;53.30;;;;;;5080091;28;20505;-86
2021/04/24 10:24:54;;;;;;;14.93;8.47;;;16.60;53.10;;;;;;5084932;28;20509;-86
2021/04/24 10:27:23;;;;;;;13.60;7.77;;;16.70;52.60;;;;;;5087308;28;20535;-84
2021/04/24 10:29:50;;;;;;;13.50;8.33;;;16.70;51.80;;;;;;5090655;28;20431;-88
2021/04/24 10:32:17;;;;;;;15.43;9.47;;;16.70;52.00;;;;;;5078804;28;20457;-86
2021/04/24 10:34:45;;;;;;;12.23;7.90;;;16.70;52.40;;;;;;5080575;28;20463;-88
2021/04/24 10:37:11;;;;;;;15.60;8.87;;;16.80;52.20;;;;;;5082616;28;20470;-85
2021/04/24 10:39:39;;;;;;;14.70;8.83;;;16.90;51.60;;;;;;5083105;28;20606;-87
2021/04/24 10:42:11;;;;;;;13.60;7.33;;;17.10;51.50;;;;;;5082656;28;20452;-88
2021/04/24 10:44:48;;;;;;;18.80;8.00;;;17.20;50.80;;;;;;5082861;28;20521;-86
2021/04/24 10:47:14;;;;;;;12.80;8.63;;;17.10;50.30;;;;;;5082136;28;20443;-85
2021/04/24 10:49:53;;;;;;;13.10;8.87;;;17.00;50.40;;;;;;5110367;22;20500;-80
2021/04/24 10:52:22;;;;;;;14.43;9.57;;;17.10;51.00;;;;;;5119464;28;20428;-81
2021/04/24 10:55:22;;;;;;;16.50;9.17;;;17.30;50.30;;;;;;5116371;28;20457;-81
2021/04/24 10:57:50;;;;;;;13.50;8.70;;;17.40;50.90;;;;;;5115174;28;20538;-80
2021/04/24 11:00:21;;;;;;;13.73;8.90;;;17.40;50.20;;;;;;5098329;28;20987;-80
2021/04/24 11:02:49;;;;;;;16.70;8.33;;;17.40;50.00;;;;;;5094800;28;20485;-80
2021/04/24 11:05:28;;;;;;;12.10;7.97;;;17.50;49.80;;;;;;5095176;28;20620;-80
2021/04/24 11:08:34;;;;;;;19.70;9.00;;;17.60;49.20;;;;;;5099598;28;20497;-80
2021/04/24 11:11:05;;;;;;;18.13;10.93;;;17.70;49.20;;;;;;5098024;28;20580;-80
2021/04/24 11:13:34;;;;;;;11.93;9.00;;;17.60;49.20;;;;;;5101212;28;20498;-80
2021/04/24 11:16:03;;;;;;;15.20;8.97;;;17.70;49.00;;;;;;5090331;28;20457;-81
2021/04/24 11:18:31;;;;;;;12.87;7.70;;;17.80;48.80;;;;;;5076450;28;20460;-81
2021/04/24 11:20:59;;;;;;;14.57;9.33;;;17.50;49.10;;;;;;5093184;28;20487;-81
2021/04/24 11:23:54;;;;;;;13.10;9.03;;;17.50;49.00;;;;;;5094220;28;20444;-81
2021/04/24 11:26:39;;;;;;;45.80;8.90;;;17.70;49.00;;;;;;5097999;28;20544;-81
2021/04/24 11:29:09;;;;;;;16.90;8.83;;;17.60;48.20;;;;;;5083634;28;20673;-81
2021/04/24 11:31:57;;;;;;;13.80;8.53;;;17.50;48.10;;;;;;5093877;28;20488;-81
2021/04/24 11:34:29;;;;;;;15.27;8.93;;;17.50;47.90;;;;;;5077805;28;20452;-81
2021/04/24 11:37:38;;;;;;;11.33;8.00;;;17.60;48.30;;;;;;5078315;28;20537;-81
2021/04/24 11:40:25;;;;;;;15.13;7.40;;;17.70;47.40;;;;;;5078273;28;20476;-80
2021/04/24 11:43:11;;;;;;;14.43;9.67;;;17.60;47.00;;;;;;5078248;28;20493;-80
2021/04/24 11:45:52;;;;;;;14.20;9.40;;;17.50;47.10;;;;;;5078320;28;20527;-80
2021/04/24 11:48:57;;;;;;;11.80;8.20;;;17.70;47.50;;;;;;5080770;28;20502;-81
2021/04/24 11:51:46;;;;;;;13.57;8.57;;;17.90;47.00;;;;;;5083200;28;20447;-80
2021/04/24 11:54:20;;;;;;;15.13;8.53;;;18.10;46.10;;;;;;5084057;28;20515;-81
2021/04/24 11:56:49;;;;;;;12.00;9.00;;;18.10;45.60;;;;;;5080403;28;20450;-81
2021/04/24 11:59:21;;;;;;;13.70;8.03;;;17.90;45.70;;;;;;5077222;28;20528;-81
2021/04/24 12:01:47;;;;;;;12.70;9.10;;;18.00;46.00;;;;;;5078026;28;20544;-81
2021/04/24 12:04:25;;;;;;;11.10;7.70;;;17.80;45.70;;;;;;5078459;28;20487;-81
2021/04/24 12:06:59;;;;;;;15.13;8.80;;;17.90;45.50;;;;;;5098287;28;20458;-80
2021/04/24 12:09:26;;;;;;;10.87;8.60;;;17.70;45.30;;;;;;5098529;28;20467;-81
2021/04/24 12:11:58;;;;;;;14.37;8.47;;;17.80;45.60;;;;;;5098770;28;20495;-81
2021/04/24 12:14:25;;;;;;;14.47;10.20;;;17.90;45.60;;;;;;5086147;28;20962;-81
2021/04/24 12:16:51;;;;;;;16.00;10.43;;;18.10;44.90;;;;;;5082954;28;20459;-80
2021/04/24 12:19:32;;;;;;;11.40;8.97;;;18.00;45.00;;;;;;5089997;28;20526;-81
2021/04/24 12:22:02;;;;;;;10.83;8.53;;;18.10;45.00;;;;;;5092121;28;20471;-81
2021/04/24 12:24:29;;;;;;;14.30;9.43;;;18.10;44.80;;;;;;5100286;28;20515;-81
2021/04/24 12:26:55;;;;;;;11.57;7.50;;;18.30;44.70;;;;;;5098589;28;20530;-80
2021/04/24 12:29:44;;;;;;;13.63;8.80;;;18.30;44.40;;;;;;5099699;28;21033;-80
2021/04/24 12:32:13;;;;;;;13.90;9.33;;;18.30;44.10;;;;;;5098666;28;20553;-81
2021/04/24 12:34:40;;;;;;;14.90;8.40;;;18.20;44.40;;;;;;5101164;28;20559;-81
2021/04/24 12:37:09;;;;;;;12.47;8.87;;;18.30;44.60;;;;;;5101442;28;20451;-80
2021/04/24 12:39:36;;;;;;;11.63;8.30;;;18.50;44.10;;;;;;5097233;28;20508;-81
2021/04/24 12:42:04;;;;;;;13.40;8.60;;;18.50;43.90;;;;;;5098592;28;20445;-80
2021/04/24 12:44:32;;;;;;;14.37;8.67;;;18.60;43.50;;;;;;5097967;28;20629;-80
2021/04/24 12:46:59;;;;;;;13.27;8.43;;;18.60;43.20;;;;;;5099815;28;20530;-80
2021/04/24 12:49:26;;;;;;;15.40;9.77;;;18.60;43.40;;;;;;5098320;28;20490;-81
2021/04/24 12:52:05;;;;;;;12.43;8.90;;;18.70;43.50;;;;;;5096617;28;20552;-80
2021/04/24 12:54:32;;;;;;;15.00;11.17;;;18.80;42.80;;;;;;5095099;28;21020;-81